createdAt,value
2023-05-12T00:02:24.843Z,0.90
2023-05-12T00:04:54.547Z,1.00
2023-05-12T00:07:21.575Z,0.90
2023-05-12T00:09:48.467Z,0.93
2023-05-12T00:12:15.420Z,1.00
2023-05-12T00:14:42.324Z,0.90
2023-05-12T00:17:09.272Z,1.10
2023-05-12T00:19:36.153Z,1.10
2023-05-12T00:22:05.705Z,1.10
2023-05-12T00:24:32.620Z,1.00
2023-05-12T00:26:59.522Z,0.90
2023-05-12T00:29:26.591Z,1.13
2023-05-12T00:31:55.173Z,1.00
2023-05-12T00:34:22.227Z,1.20
2023-05-12T00:36:49.217Z,1.13
2023-05-12T00:39:18.747Z,1.10
2023-05-12T00:41:45.623Z,1.10
2023-05-12T00:44:12.505Z,1.20
2023-05-12T00:46:39.692Z,1.20
2023-05-12T00:49:06.850Z,1.43
2023-05-12T00:51:33.852Z,1.30
2023-05-12T00:54:00.726Z,1.63
2023-05-12T00:56:30.236Z,1.40
2023-05-12T00:58:57.153Z,1.40
2023-05-12T01:01:24.049Z,1.50
2023-05-12T01:03:50.969Z,1.40
2023-05-12T01:06:24.225Z,1.43
2023-05-12T01:08:51.706Z,1.30
2023-05-12T01:11:18.584Z,1.30
2023-05-12T01:13:48.085Z,1.10
2023-05-12T01:16:16.720Z,1.00
2023-05-12T01:18:45.889Z,1.10
2023-05-12T01:21:12.972Z,1.00
2023-05-12T01:23:46.732Z,1.00
2023-05-12T01:26:16.429Z,0.80
2023-05-12T01:28:43.476Z,0.60
2023-05-12T01:31:10.437Z,1.10
2023-05-12T01:33:37.487Z,0.90
2023-05-12T01:36:05.373Z,0.80
2023-05-12T01:38:32.351Z,0.93
2023-05-12T01:40:59.293Z,0.80
2023-05-12T01:43:28.847Z,0.70
2023-05-12T01:45:55.778Z,0.60
2023-05-12T01:48:22.699Z,0.90
2023-05-12T01:50:49.569Z,0.80
2023-05-12T01:53:16.511Z,1.00
2023-05-12T01:55:43.367Z,0.90
2023-05-12T01:58:10.284Z,1.00
2023-05-12T02:00:39.745Z,0.80
2023-05-12T02:03:06.743Z,1.00
2023-05-12T02:05:33.739Z,0.80
2023-05-12T02:08:00.673Z,0.90
2023-05-12T02:10:27.639Z,0.90
2023-05-12T02:12:54.503Z,1.03
2023-05-12T02:15:21.393Z,1.10
2023-05-12T02:17:50.942Z,1.10
2023-05-12T02:20:17.999Z,1.30
2023-05-12T02:22:45.066Z,1.20
2023-05-12T02:25:11.966Z,1.10
2023-05-12T02:27:38.881Z,1.10
2023-05-12T02:30:07.320Z,1.20
2023-05-12T02:32:34.245Z,1.27
2023-05-12T02:35:04.343Z,1.50
2023-05-12T02:37:31.240Z,1.20
2023-05-12T02:39:58.186Z,1.30
2023-05-12T02:42:25.104Z,1.33
2023-05-12T02:44:52.021Z,1.70
2023-05-12T02:47:18.970Z,1.60
2023-05-12T02:49:45.828Z,1.53
2023-05-12T02:52:15.343Z,1.67
2023-05-12T02:54:42.241Z,1.70
2023-05-12T02:57:09.135Z,1.93
2023-05-12T02:59:36.047Z,2.00
2023-05-12T03:02:03.015Z,2.10
2023-05-12T03:04:29.972Z,1.90
2023-05-12T03:06:57.276Z,2.17
2023-05-12T03:09:26.800Z,1.93
2023-05-12T03:11:53.689Z,1.90
2023-05-12T03:14:20.591Z,2.07
2023-05-12T03:16:47.735Z,1.80
2023-05-12T03:19:14.788Z,1.77
2023-05-12T03:21:41.702Z,2.20
2023-05-12T03:24:08.976Z,2.30
2023-05-12T03:26:38.575Z,1.80
2023-05-12T03:29:05.486Z,1.70
2023-05-12T03:31:32.429Z,1.80
2023-05-12T03:33:59.373Z,1.87
2023-05-12T03:36:26.299Z,1.80
2023-05-12T03:38:53.161Z,2.10
2023-05-12T03:41:20.067Z,2.20
2023-05-12T03:43:49.594Z,1.87
2023-05-12T03:46:16.629Z,1.80
2023-05-12T03:48:43.553Z,1.90
2023-05-12T03:51:10.491Z,1.83
2023-05-12T03:53:37.367Z,2.30
2023-05-12T03:56:05.000Z,2.20
2023-05-12T03:58:31.964Z,2.13
2023-05-12T04:01:01.491Z,1.77
2023-05-12T04:03:28.500Z,1.90
2023-05-12T04:05:58.430Z,1.63
2023-05-12T04:08:25.520Z,1.80
2023-05-12T04:10:55.088Z,1.60
2023-05-12T04:13:22.020Z,2.20
2023-05-12T04:15:48.948Z,1.70
2023-05-12T04:18:18.456Z,1.80
2023-05-12T04:20:45.340Z,1.80
2023-05-12T04:23:12.220Z,1.80
2023-05-12T04:25:39.415Z,1.70
2023-05-12T04:28:06.511Z,1.70
2023-05-12T04:30:33.466Z,1.60
2023-05-12T04:33:00.461Z,1.50
2023-05-12T04:35:30.035Z,1.40
2023-05-12T04:37:56.953Z,1.50
2023-05-12T04:40:23.889Z,1.50
2023-05-12T04:42:50.761Z,1.60
2023-05-12T04:45:17.999Z,1.60
2023-05-12T04:47:45.265Z,1.57
2023-05-12T04:50:12.502Z,1.47
2023-05-12T04:52:42.066Z,1.93
2023-05-12T04:55:09.892Z,1.40
2023-05-12T04:57:36.791Z,1.80
2023-05-12T05:00:04.455Z,1.30
2023-05-12T05:02:31.489Z,1.50
2023-05-12T05:04:58.411Z,1.47
2023-05-12T05:07:25.443Z,1.60
2023-05-12T05:09:54.952Z,1.67
2023-05-12T05:12:21.860Z,1.87
2023-05-12T05:14:48.774Z,1.60
2023-05-12T05:17:15.756Z,2.00
2023-05-12T05:19:54.810Z,1.60
2023-05-12T05:22:24.994Z,1.87
2023-05-12T05:24:54.637Z,1.60
2023-05-12T05:27:21.551Z,1.90
2023-05-12T05:29:48.455Z,1.83
2023-05-12T05:32:15.341Z,1.90
2023-05-12T05:34:42.268Z,1.90
2023-05-12T05:37:09.174Z,1.40
2023-05-12T05:39:36.044Z,1.83
2023-05-12T05:42:05.763Z,1.60
2023-05-12T05:44:32.680Z,1.90
2023-05-12T05:46:59.623Z,1.80
2023-05-12T05:49:26.604Z,1.90
2023-05-12T05:51:53.500Z,1.80
2023-05-12T05:54:20.424Z,1.80
2023-05-12T05:56:47.316Z,2.00
2023-05-12T05:59:16.856Z,1.90
2023-05-12T06:01:43.793Z,1.77
2023-05-12T06:04:10.745Z,1.90
2023-05-12T06:06:37.717Z,1.40
2023-05-12T06:09:04.684Z,1.60
2023-05-12T06:11:31.554Z,1.40
2023-05-12T06:13:58.457Z,1.70
2023-05-12T06:16:27.975Z,1.53
2023-05-12T06:18:54.886Z,1.53
2023-05-12T06:21:21.784Z,1.70
2023-05-12T06:23:48.885Z,1.80
2023-05-12T06:26:15.916Z,1.53
2023-05-12T06:28:42.799Z,1.70
2023-05-12T06:31:09.678Z,1.50
2023-05-12T06:33:39.249Z,1.70
2023-05-12T06:36:07.364Z,1.60
2023-05-12T06:38:34.276Z,1.30
2023-05-12T06:41:01.221Z,1.40
2023-05-12T06:43:28.150Z,1.50
2023-05-12T06:45:55.051Z,1.80
2023-05-12T06:48:22.127Z,1.40
2023-05-12T06:50:51.700Z,1.40
2023-05-12T06:53:18.613Z,1.70
2023-05-12T06:55:45.543Z,1.30
2023-05-12T06:58:12.495Z,1.30
2023-05-12T07:00:39.393Z,1.70
2023-05-12T07:03:06.443Z,1.63
2023-05-12T07:05:33.363Z,1.30
2023-05-12T07:08:02.958Z,1.70
2023-05-12T07:10:29.850Z,1.50
2023-05-12T07:12:56.805Z,1.40
2023-05-12T07:15:23.845Z,1.70
2023-05-12T07:17:50.857Z,1.60
2023-05-12T07:20:17.867Z,1.60
2023-05-12T07:22:44.825Z,1.60
2023-05-12T07:25:14.648Z,1.73
2023-05-12T07:27:41.835Z,1.30
2023-05-12T07:30:09.646Z,1.40
2023-05-12T07:32:36.744Z,1.57
2023-05-12T07:35:04.144Z,1.63
2023-05-12T07:37:31.269Z,1.50
2023-05-12T07:39:58.158Z,1.33
2023-05-12T07:42:27.704Z,1.43
2023-05-12T07:44:54.655Z,1.57
2023-05-12T07:47:21.555Z,1.50
2023-05-12T07:49:48.501Z,1.60
2023-05-12T07:52:15.436Z,1.60
2023-05-12T07:54:42.347Z,1.40
2023-05-12T07:57:09.232Z,1.60
2023-05-12T07:59:38.710Z,1.53
2023-05-12T08:02:05.697Z,1.60
2023-05-12T08:04:32.678Z,1.60
2023-05-12T08:06:59.640Z,1.40
2023-05-12T08:09:26.612Z,1.40
2023-05-12T08:11:53.481Z,1.67
2023-05-12T08:14:20.411Z,1.47
2023-05-12T08:16:50.000Z,1.70
2023-05-12T08:19:16.989Z,1.50
2023-05-12T08:21:44.782Z,1.47
2023-05-12T08:24:11.728Z,1.70
2023-05-12T08:26:38.724Z,1.70
2023-05-12T08:29:05.617Z,1.40
2023-05-12T08:31:32.847Z,1.47
2023-05-12T08:34:10.499Z,1.40
2023-05-12T08:36:38.080Z,1.53
2023-05-12T08:39:05.163Z,1.60
2023-05-12T08:41:43.019Z,1.70
2023-05-12T08:44:10.934Z,1.60
2023-05-12T08:46:38.287Z,1.57
2023-05-12T08:49:10.673Z,1.67
2023-05-12T08:51:40.705Z,1.80
2023-05-12T08:54:08.981Z,1.80
2023-05-12T08:59:09.335Z,1.50
2023-05-12T09:01:37.034Z,1.60
2023-05-12T09:04:07.691Z,1.57
2023-05-12T09:06:35.316Z,1.60
2023-05-12T09:09:03.390Z,1.50
2023-05-12T09:11:30.405Z,1.50
2023-05-12T09:14:01.719Z,1.50
2023-05-12T09:16:33.258Z,1.80
2023-05-12T09:19:01.380Z,1.20
2023-05-12T09:21:31.131Z,1.30
2023-05-12T09:23:59.506Z,1.30
2023-05-12T09:26:28.147Z,1.40
2023-05-12T09:29:05.221Z,1.60
2023-05-12T09:31:32.340Z,1.50
2023-05-12T09:33:59.312Z,1.20
2023-05-12T09:36:26.435Z,1.27
2023-05-12T09:39:04.012Z,1.40
2023-05-12T09:41:31.072Z,1.43
2023-05-12T09:43:59.993Z,1.33
2023-05-12T09:46:27.146Z,1.30
2023-05-12T09:48:56.293Z,1.40
2023-05-12T09:51:23.458Z,1.30
2023-05-12T09:53:50.412Z,1.30
2023-05-12T09:56:19.938Z,1.30
2023-05-12T09:58:48.556Z,1.13
2023-05-12T10:01:22.745Z,1.00
2023-05-12T10:03:52.322Z,1.30
2023-05-12T10:06:21.545Z,1.30
2023-05-12T10:08:52.776Z,1.23
2023-05-12T10:11:22.927Z,1.10
2023-05-12T10:13:49.840Z,1.27
2023-05-12T10:16:17.194Z,1.33
2023-05-12T10:18:44.300Z,1.20
2023-05-12T10:21:12.521Z,1.13
2023-05-12T10:23:40.559Z,0.90
2023-05-12T10:26:07.725Z,1.00
2023-05-12T10:28:37.398Z,1.10
2023-05-12T10:31:06.542Z,1.20
2023-05-12T10:33:33.489Z,1.20
2023-05-12T10:36:00.376Z,1.10
2023-05-12T10:38:35.085Z,1.23
2023-05-12T10:41:03.202Z,1.13
2023-05-12T10:43:41.621Z,1.20
2023-05-12T10:46:17.101Z,1.10
2023-05-12T10:48:52.548Z,1.17
2023-05-12T10:51:20.629Z,1.10
2023-05-12T10:53:54.578Z,0.90
2023-05-12T10:56:23.390Z,0.80
2023-05-12T10:59:05.382Z,1.10
2023-05-12T11:01:36.131Z,0.90
2023-05-12T11:04:14.195Z,1.17
2023-05-12T11:06:43.167Z,1.10
2023-05-12T11:09:11.147Z,0.80
2023-05-12T11:11:38.471Z,1.30
2023-05-12T11:14:05.590Z,0.93
2023-05-12T11:16:41.369Z,1.00
2023-05-12T11:19:08.463Z,1.10
2023-05-12T11:21:35.732Z,1.10
2023-05-12T11:24:03.086Z,1.00
2023-05-12T11:26:30.447Z,1.10
2023-05-12T11:28:57.818Z,1.00
2023-05-12T11:31:27.664Z,1.07
2023-05-12T11:34:12.533Z,1.10
2023-05-12T11:36:41.056Z,1.20
2023-05-12T11:39:13.098Z,1.00
2023-05-12T11:41:40.112Z,1.17
2023-05-12T11:44:13.917Z,1.07
2023-05-12T11:46:40.642Z,1.00
2023-05-12T11:49:11.470Z,1.00
2023-05-12T11:51:42.281Z,1.30
2023-05-12T11:54:09.471Z,0.80
2023-05-12T11:56:36.443Z,0.97
2023-05-12T11:59:03.419Z,1.07
2023-05-12T12:01:30.350Z,0.90
2023-05-12T12:03:57.374Z,1.00
2023-05-12T12:06:27.030Z,1.00
2023-05-12T12:08:54.891Z,1.07
2023-05-12T12:11:23.146Z,1.10
2023-05-12T12:13:50.950Z,1.03
2023-05-12T12:16:17.905Z,1.10
2023-05-12T12:18:44.845Z,1.17
2023-05-12T12:21:11.773Z,0.90
2023-05-12T12:23:50.250Z,1.07
2023-05-12T12:26:19.036Z,1.20
2023-05-12T12:28:46.481Z,1.03
2023-05-12T12:31:13.453Z,0.90
2023-05-12T12:33:40.577Z,1.10
2023-05-12T12:36:08.203Z,0.87
2023-05-12T12:38:35.132Z,1.10
2023-05-12T12:41:04.669Z,0.90
2023-05-12T12:43:31.574Z,0.97
2023-05-12T12:45:58.498Z,1.03
2023-05-12T12:48:25.434Z,1.00
2023-05-12T12:50:52.484Z,0.80
2023-05-12T12:53:19.389Z,1.00
2023-05-12T12:55:46.298Z,0.90
2023-05-12T12:58:15.892Z,0.87
2023-05-12T13:00:42.944Z,0.70
2023-05-12T13:03:09.886Z,1.00
2023-05-12T13:05:36.887Z,0.93
2023-05-12T13:08:03.903Z,0.70
2023-05-12T13:10:30.960Z,0.80
2023-05-12T13:12:57.840Z,0.80
2023-05-12T13:15:27.338Z,0.80
2023-05-12T13:17:54.298Z,0.70
2023-05-12T13:20:21.448Z,0.70
2023-05-12T13:22:48.674Z,1.00
2023-05-12T13:25:15.569Z,0.80
2023-05-12T13:27:42.485Z,0.80
2023-05-12T13:30:10.872Z,0.80
2023-05-12T13:32:42.386Z,0.80
2023-05-12T13:35:09.776Z,0.90
2023-05-12T13:37:37.273Z,0.90
2023-05-12T13:40:05.002Z,0.90
2023-05-12T13:42:31.907Z,0.80
2023-05-12T13:44:58.833Z,0.87
2023-05-12T13:47:25.730Z,0.80
2023-05-12T13:49:55.271Z,0.80
2023-05-12T13:52:22.236Z,0.90
2023-05-12T13:54:49.176Z,0.97
2023-05-12T13:57:16.053Z,0.90
2023-05-12T13:59:43.344Z,0.80
2023-05-12T14:02:10.303Z,1.10
2023-05-12T14:04:37.305Z,1.10
2023-05-12T14:07:08.434Z,1.00
2023-05-12T14:09:35.777Z,1.00
2023-05-12T14:12:02.660Z,0.80
2023-05-12T14:14:29.552Z,1.10
2023-05-12T14:16:56.472Z,1.13
2023-05-12T14:19:23.404Z,1.03
2023-05-12T14:21:50.295Z,1.00
2023-05-12T14:24:19.800Z,0.90
2023-05-12T14:26:46.701Z,1.03
2023-05-12T14:29:13.624Z,1.10
2023-05-12T14:31:40.658Z,1.00
2023-05-12T14:34:07.588Z,0.90
2023-05-12T14:36:34.489Z,1.17
2023-05-12T14:39:01.403Z,1.00
2023-05-12T14:41:30.954Z,1.00
2023-05-12T14:43:58.135Z,1.37
2023-05-12T14:46:25.281Z,0.90
2023-05-12T14:48:52.239Z,1.20
2023-05-12T14:51:19.189Z,1.20
2023-05-12T14:53:46.076Z,1.20
2023-05-12T14:56:12.966Z,1.43
2023-05-12T14:58:42.539Z,1.33
2023-05-12T15:01:09.763Z,1.20
2023-05-12T15:03:36.917Z,1.33
2023-05-12T15:06:06.965Z,1.23
2023-05-12T15:08:34.615Z,1.20
2023-05-12T15:11:01.539Z,1.37
2023-05-12T15:13:28.496Z,1.37
2023-05-12T15:15:57.989Z,1.23
2023-05-12T15:18:24.988Z,1.20
2023-05-12T15:20:52.052Z,1.33
2023-05-12T15:23:19.023Z,1.63
2023-05-12T15:25:45.958Z,1.70
2023-05-12T15:28:12.888Z,1.43
2023-05-12T15:30:39.835Z,1.10
2023-05-12T15:33:09.407Z,1.10
2023-05-12T15:35:36.311Z,1.20
2023-05-12T15:38:03.215Z,1.20
2023-05-12T15:40:30.120Z,1.17
2023-05-12T15:42:57.135Z,1.10
2023-05-12T15:45:24.045Z,1.30
2023-05-12T15:47:51.009Z,1.10
2023-05-12T15:50:20.548Z,1.00
2023-05-12T15:52:47.538Z,1.00
2023-05-12T15:55:14.610Z,1.30
2023-05-12T15:57:41.675Z,1.30
2023-05-12T16:00:09.735Z,1.10
2023-05-12T16:02:36.716Z,1.30
2023-05-12T16:05:03.934Z,1.37
2023-05-12T16:07:33.735Z,1.10
2023-05-12T16:10:00.739Z,1.20
2023-05-12T16:12:27.672Z,1.10
2023-05-12T16:14:54.619Z,1.10
2023-05-12T16:17:21.542Z,0.90
2023-05-12T16:19:48.594Z,1.03
2023-05-12T16:22:15.649Z,1.20
2023-05-12T16:24:45.176Z,0.90
2023-05-12T16:27:12.083Z,1.00
2023-05-12T16:29:39.048Z,0.90
2023-05-12T16:32:06.714Z,1.10
2023-05-12T16:34:33.602Z,0.90
2023-05-12T16:37:00.514Z,0.90
2023-05-12T16:39:27.420Z,0.80
2023-05-12T16:41:56.961Z,1.10
2023-05-12T16:44:23.841Z,0.80
2023-05-12T16:46:50.722Z,1.07
2023-05-12T16:49:17.634Z,1.13
2023-05-12T16:51:44.506Z,1.20
2023-05-12T16:54:11.410Z,1.40
2023-05-12T16:56:38.283Z,1.10
2023-05-12T16:59:07.947Z,1.27
2023-05-12T17:01:34.858Z,1.13
2023-05-12T17:04:02.085Z,0.97
2023-05-12T17:06:29.270Z,1.20
2023-05-12T17:08:56.123Z,1.20
2023-05-12T17:11:23.047Z,1.33
2023-05-12T17:13:49.987Z,1.20
2023-05-12T17:16:19.533Z,1.00
2023-05-12T17:21:16.238Z,1.20
2023-05-12T17:23:43.162Z,1.30
2023-05-12T17:26:10.029Z,1.07
2023-05-12T17:28:36.921Z,1.00
2023-05-12T17:31:03.903Z,1.10
2023-05-12T17:33:33.447Z,1.10
2023-05-12T17:36:11.776Z,1.03
2023-05-12T17:38:40.690Z,1.10
2023-05-12T17:41:08.454Z,1.23
2023-05-12T17:43:35.331Z,1.10
2023-05-12T17:46:02.259Z,1.17
2023-05-12T17:48:29.164Z,1.60
2023-05-12T17:50:58.721Z,1.37
2023-05-12T17:53:25.776Z,1.07
2023-05-12T17:55:52.715Z,1.40
2023-05-12T17:58:19.618Z,1.30
2023-05-12T18:00:46.656Z,1.20
2023-05-12T18:03:13.671Z,1.00
2023-05-12T18:05:40.770Z,1.00
2023-05-12T18:08:10.301Z,1.17
2023-05-12T18:10:37.262Z,1.30
2023-05-12T18:13:04.180Z,1.30
2023-05-12T18:15:31.080Z,1.20
2023-05-12T18:17:58.059Z,1.20
2023-05-12T18:20:25.315Z,1.10
2023-05-12T18:22:52.279Z,1.20
2023-05-12T18:25:22.153Z,1.00
2023-05-12T18:27:49.188Z,1.10
2023-05-12T18:30:16.372Z,1.00
2023-05-12T18:32:43.307Z,1.00
2023-05-12T18:35:10.322Z,0.97
2023-05-12T18:37:37.246Z,1.40
2023-05-12T18:40:05.034Z,1.10
2023-05-12T18:42:34.623Z,1.10
2023-05-12T18:45:01.509Z,1.23
2023-05-12T18:47:28.405Z,1.27
2023-05-12T18:49:55.375Z,1.23
2023-05-12T18:52:22.386Z,1.50
2023-05-12T18:54:49.789Z,1.80
2023-05-12T18:57:17.081Z,1.60
2023-05-12T18:59:46.830Z,1.27
2023-05-12T19:02:13.784Z,1.53
2023-05-12T19:04:40.780Z,1.50
2023-05-12T19:07:07.755Z,1.63
2023-05-12T19:09:34.649Z,1.70
2023-05-12T19:12:01.609Z,1.60
2023-05-12T19:14:28.498Z,1.73
2023-05-12T19:16:58.031Z,1.80
2023-05-12T19:19:24.895Z,1.80
2023-05-12T19:21:52.458Z,1.80
2023-05-12T19:24:19.411Z,1.87
2023-05-12T19:26:46.386Z,1.90
2023-05-12T19:29:13.342Z,3.23
2023-05-12T19:31:40.324Z,4.30
2023-05-12T19:34:09.844Z,4.00
2023-05-12T19:36:36.948Z,4.20
2023-05-12T19:39:04.024Z,4.27
2023-05-12T19:41:31.035Z,4.13
2023-05-12T19:43:57.917Z,3.93
2023-05-12T19:46:25.061Z,2.80
2023-05-12T19:48:52.295Z,2.00
2023-05-12T19:51:21.862Z,1.70
2023-05-12T19:53:48.757Z,1.67
2023-05-12T19:56:15.635Z,2.17
2023-05-12T19:58:42.561Z,1.60
2023-05-12T20:01:10.480Z,1.27
2023-05-12T20:03:37.418Z,1.50
2023-05-12T20:06:05.070Z,1.80
2023-05-12T20:08:34.601Z,2.17
2023-05-12T20:11:01.532Z,2.60
2023-05-12T20:13:28.478Z,2.53
2023-05-12T20:15:55.438Z,2.60
2023-05-12T20:18:22.380Z,2.53
2023-05-12T20:20:49.359Z,2.70
2023-05-12T20:23:16.704Z,2.43
2023-05-12T20:25:46.475Z,2.10
2023-05-12T20:28:13.381Z,2.13
2023-05-12T20:30:42.521Z,2.30
2023-05-12T20:33:09.417Z,2.10
2023-05-12T20:35:36.362Z,2.20
2023-05-12T20:38:03.399Z,2.33
2023-05-12T20:40:30.353Z,2.40
2023-05-12T20:42:59.800Z,2.60
2023-05-12T20:45:26.858Z,2.47
2023-05-12T20:47:53.765Z,2.13
2023-05-12T20:50:20.777Z,2.20
2023-05-12T20:52:47.701Z,3.37
2023-05-12T20:55:14.627Z,4.63
2023-05-12T20:57:41.568Z,3.80
2023-05-12T21:00:12.639Z,3.40
2023-05-12T21:02:39.908Z,3.47
2023-05-12T21:05:07.394Z,3.40
2023-05-12T21:07:34.321Z,3.03
2023-05-12T21:10:01.297Z,3.13
2023-05-12T21:12:28.176Z,2.87
2023-05-12T21:14:55.411Z,2.50
2023-05-12T21:17:24.863Z,2.57
2023-05-12T21:19:51.845Z,2.50
2023-05-12T21:22:18.748Z,2.63
2023-05-12T21:24:45.649Z,2.83
2023-05-12T21:27:12.628Z,4.27
2023-05-12T21:29:39.535Z,3.40
2023-05-12T21:32:07.320Z,3.20
2023-05-12T21:34:36.906Z,3.07
2023-05-12T21:37:04.056Z,3.20
2023-05-12T21:39:30.924Z,2.67
2023-05-12T21:41:57.841Z,3.03
2023-05-12T21:44:24.744Z,2.73
2023-05-12T21:46:51.663Z,2.70
2023-05-12T21:49:18.543Z,2.80
2023-05-12T21:51:48.084Z,2.90
2023-05-12T21:54:14.973Z,2.60
2023-05-12T21:56:41.855Z,2.70
2023-05-12T21:59:08.765Z,2.97
2023-05-12T22:01:35.708Z,3.00
2023-05-12T22:04:02.893Z,2.60
2023-05-12T22:06:29.830Z,3.10
2023-05-12T22:08:59.464Z,2.80
2023-05-12T22:11:26.395Z,3.07
2023-05-12T22:13:53.362Z,3.20
2023-05-12T22:16:25.765Z,3.30
2023-05-12T22:18:55.509Z,3.43
2023-05-12T22:21:22.464Z,3.40
2023-05-12T22:23:49.371Z,3.37
2023-05-12T22:26:18.855Z,3.50
2023-05-12T22:28:45.765Z,4.60
2023-05-12T22:31:12.781Z,4.73
2023-05-12T22:33:39.679Z,4.77
2023-05-12T22:36:07.596Z,3.83
2023-05-12T22:38:34.479Z,3.30
2023-05-12T22:41:03.845Z,4.23
2023-05-12T22:43:33.419Z,3.47
2023-05-12T22:46:00.296Z,3.40
2023-05-12T22:48:27.216Z,2.60
2023-05-12T22:50:54.253Z,2.80
2023-05-12T22:53:21.144Z,2.67
2023-05-12T22:55:48.109Z,2.50
2023-05-12T22:58:15.035Z,2.40
2023-05-12T23:00:44.663Z,2.60
2023-05-12T23:03:11.898Z,2.23
2023-05-12T23:05:38.861Z,2.93
2023-05-12T23:08:05.789Z,2.63
2023-05-12T23:10:32.719Z,2.17
2023-05-12T23:12:59.622Z,2.50
2023-05-12T23:15:26.636Z,2.60
2023-05-12T23:17:56.157Z,2.70
2023-05-12T23:20:23.464Z,2.20
2023-05-12T23:22:50.596Z,2.30
2023-05-12T23:25:17.585Z,2.20
2023-05-12T23:27:44.527Z,2.50
2023-05-12T23:30:12.353Z,2.20
2023-05-12T23:32:39.429Z,2.13
2023-05-12T23:35:10.087Z,2.23
2023-05-12T23:37:37.035Z,2.00
2023-05-12T23:40:05.010Z,2.10
2023-05-12T23:42:31.953Z,2.13
2023-05-12T23:44:58.913Z,2.17
2023-05-12T23:47:25.869Z,2.30
2023-05-12T23:49:52.820Z,2.17
2023-05-12T23:52:22.358Z,2.57
2023-05-12T23:54:49.259Z,2.67
2023-05-12T23:57:16.199Z,2.40
2023-05-12T23:59:43.079Z,2.50
